Time;durP1;ratioP1;P1;durP2;ratioP2;P2;SDS_P1;SDS_P2;PMS_P1;PMS_P2;Temp;Humidity;BMP_temperature;BMP_pressure;BME280_temperature;BME280_humidity;BME280_pressure;Samples;Min_cycle;Max_cycle;Signal;HPM_P1;HPM_P2
2023/02/17 00:01:27;;;;;;;11.20;4.90;;;;;;;-1.03;76.35;99996.23;79484;1296;3011646;-60
2023/02/17 00:03:55;;;;;;;9.10;4.40;;;;;;;-1.02;77.00;99988.33;78172;1301;3057235;-59
2023/02/17 00:06:24;;;;;;;9.10;4.50;;;;;;;-1.06;77.00;99989.20;79411;1298;3013534;-59
2023/02/17 00:08:54;;;;;;;10.40;4.50;;;;;;;-1.06;77.23;99985.94;78901;1298;3013428;-60
2023/02/17 00:11:22;;;;;;;8.90;4.60;;;;;;;-1.11;77.69;99984.94;79474;1302;3014832;-59
2023/02/17 00:13:48;;;;;;;8.70;4.50;;;;;;;-1.06;77.06;99983.20;79388;1302;3014320;-59
2023/02/17 00:16:21;;;;;;;8.70;4.20;;;;;;;-1.16;76.39;99981.86;78010;1300;3068583;-59
2023/02/17 00:18:51;;;;;;;8.50;4.60;;;;;;;-1.25;76.78;99978.96;79385;1296;3011871;-60
2023/02/17 00:21:23;;;;;;;9.20;4.70;;;;;;;-1.24;77.14;99975.54;78221;1296;3055834;-60
2023/02/17 00:23:50;;;;;;;7.20;3.90;;;;;;;-1.42;77.41;99972.50;79440;1296;3013205;-59
2023/02/17 00:26:20;;;;;;;8.20;4.80;;;;;;;-1.54;77.90;99967.73;78982;1300;3011540;-60
2023/02/17 00:28:47;;;;;;;8.50;4.60;;;;;;;-1.42;77.47;99967.88;79400;1301;3013342;-60
2023/02/17 00:31:18;;;;;;;10.90;4.80;;;;;;;-1.49;77.62;99965.14;79377;1301;3013128;-59
2023/02/17 00:33:46;;;;;;;11.90;4.90;;;;;;;-1.55;78.02;99963.44;78219;1295;3069686;-60
2023/02/17 00:36:17;;;;;;;10.20;4.60;;;;;;;-1.51;78.08;99957.75;79441;1299;3013211;-60
2023/02/17 00:38:46;;;;;;;14.40;5.30;;;;;;;-1.59;78.30;99951.94;78157;1295;3049815;-60
2023/02/17 00:41:17;;;;;;;11.20;5.10;;;;;;;-1.51;78.19;99954.48;79414;1295;3012914;-60
2023/02/17 00:43:45;;;;;;;8.20;3.60;;;;;;;-1.47;78.38;99952.60;78041;1301;3049390;-59
2023/02/17 00:46:12;;;;;;;12.90;4.80;;;;;;;-0.91;76.93;99940.45;79518;1301;3013159;-59
2023/02/17 00:48:40;;;;;;;6.90;3.60;;;;;;;-0.31;73.91;99932.61;79351;1298;3011576;-60
2023/02/17 00:51:08;;;;;;;9.30;4.00;;;;;;;-0.03;72.76;99926.67;78175;1300;3052236;-60
2023/02/17 00:53:35;;;;;;;10.90;4.70;;;;;;;0.12;72.36;99919.64;79427;1302;3020684;-60
2023/02/17 00:56:02;;;;;;;7.10;4.30;;;;;;;0.05;72.27;99910.23;79427;1299;3013649;-61
2023/02/17 00:58:35;;;;;;;9.60;5.10;;;;;;;-0.30;72.48;99906.27;78152;1298;3049755;-60
2023/02/17 01:01:01;;;;;;;11.20;5.40;;;;;;;-0.54;73.12;99904.93;79410;1300;3013886;-59
2023/02/17 01:03:28;;;;;;;14.60;6.30;;;;;;;-0.59;73.80;99896.53;79427;1308;3013112;-59
2023/02/17 01:05:56;;;;;;;15.00;6.20;;;;;;;-0.61;73.87;99896.72;78250;1301;3052015;-59
2023/02/17 01:08:23;;;;;;;12.30;5.80;;;;;;;-0.99;75.17;99897.16;79436;1296;3019804;-60
2023/02/17 01:10:51;;;;;;;13.50;6.70;;;;;;;-1.03;75.84;99893.92;79409;1296;3013451;-60
2023/02/17 01:13:19;;;;;;;10.60;5.80;;;;;;;-1.04;75.84;99890.33;78231;1298;3051480;-60
2023/02/17 01:15:49;;;;;;;13.70;6.50;;;;;;;-1.05;76.06;99891.37;79408;1301;3012091;-60
2023/02/17 01:18:20;;;;;;;15.80;6.60;;;;;;;-1.26;76.68;99889.08;78812;1299;3011550;-60
2023/02/17 01:20:49;;;;;;;14.70;6.60;;;;;;;-1.33;77.63;99890.15;79382;1306;3011437;-60
2023/02/17 01:23:19;;;;;;;14.60;6.90;;;;;;;-1.36;77.53;99889.98;78197;1301;3051863;-60
2023/02/17 01:25:46;;;;;;;16.60;6.90;;;;;;;-1.47;77.92;99880.42;79365;1298;3013591;-60
2023/02/17 01:28:15;;;;;;;14.70;7.20;;;;;;;-1.29;77.58;99873.11;79498;1296;3011724;-60
2023/02/17 01:30:43;;;;;;;24.90;7.80;;;;;;;-1.28;77.43;99870.00;78272;1298;3049512;-60
2023/02/17 01:33:13;;;;;;;17.30;7.50;;;;;;;-1.34;77.89;99864.72;79362;1298;3013203;-60
2023/02/17 01:35:42;;;;;;;14.40;6.80;;;;;;;-1.36;78.28;99851.84;78160;1305;3051956;-60
2023/02/17 01:38:09;;;;;;;16.30;7.20;;;;;;;-1.27;77.81;99843.88;79297;1301;3021080;-60
2023/02/17 01:40:36;;;;;;;17.50;7.30;;;;;;;-1.34;77.84;99843.41;79355;1300;3011654;-61
2023/02/17 01:43:05;;;;;;;21.00;8.20;;;;;;;-1.47;78.74;99840.38;78313;1296;3050322;-59
2023/02/17 01:45:42;;;;;;;19.80;6.90;;;;;;;-1.43;79.08;99833.31;79333;1301;3015842;-60
2023/02/17 01:48:14;;;;;;;13.50;6.70;;;;;;;-1.37;78.68;99830.02;78052;1300;3051575;-60
2023/02/17 01:50:48;;;;;;;19.80;8.00;;;;;;;-1.31;78.45;99831.88;79319;1300;3011490;-61
2023/02/17 01:53:25;;;;;;;18.30;7.20;;;;;;;-1.39;78.89;99832.26;78182;1298;3069363;-59
2023/02/17 01:55:53;;;;;;;15.30;6.90;;;;;;;-1.37;79.04;99829.32;79231;1295;3011615;-59
2023/02/17 01:58:22;;;;;;;14.50;6.60;;;;;;;-1.35;79.12;99825.88;77994;1301;3055981;-60
2023/02/17 02:00:49;;;;;;;17.60;6.70;;;;;;;-1.23;78.56;99822.89;79389;1298;3013936;-59
2023/02/17 02:03:15;;;;;;;14.80;6.10;;;;;;;-1.23;78.34;99820.64;79273;1295;3013565;-59
2023/02/17 02:05:43;;;;;;;8.10;4.40;;;;;;;-1.24;78.26;99818.42;78144;1298;3052942;-60
2023/02/17 02:08:10;;;;;;;13.00;5.30;;;;;;;-0.69;77.59;99815.56;79460;1298;3013166;-60
2023/02/17 02:10:36;;;;;;;10.80;5.00;;;;;;;0.06;74.60;99807.71;79277;1301;3011970;-61
2023/02/17 02:13:06;;;;;;;10.40;4.80;;;;;;;0.30;73.27;99805.71;78241;1301;3056511;-61
2023/02/17 02:15:54;;;;;;;10.80;5.00;;;;;;;0.16;73.28;99802.44;79386;1295;3011647;-60
2023/02/17 02:18:46;;;;;;;11.50;5.60;;;;;;;0.09;73.13;99800.98;78157;1296;3053770;-60
2023/02/17 02:21:37;;;;;;;14.20;6.10;;;;;;;-0.21;73.82;99798.74;78151;1300;3050090;-61
2023/02/17 02:24:08;;;;;;;13.30;6.00;;;;;;;-0.45;74.26;99796.77;78151;1301;3054946;-60
2023/02/17 02:26:49;;;;;;;10.20;5.00;;;;;;;-0.67;75.25;99794.05;79375;1298;3013195;-60
2023/02/17 02:29:39;;;;;;;12.00;6.10;;;;;;;-0.81;75.79;99797.98;78184;1298;3068943;-61
2023/02/17 02:32:42;;;;;;;13.00;5.40;;;;;;;-0.96;76.41;99795.17;78274;1299;3052548;-60
2023/02/17 02:35:17;;;;;;;10.60;4.60;;;;;;;-1.00;76.50;99788.33;78031;1301;3056643;-59
2023/02/17 02:38:26;;;;;;;14.40;5.60;;;;;;;-1.13;76.84;99781.37;78890;1298;3012660;-60
2023/02/17 02:41:02;;;;;;;9.30;4.90;;;;;;;-1.29;77.31;99782.19;78147;1298;3049241;-60
2023/02/17 02:43:30;;;;;;;10.90;4.70;;;;;;;-1.45;78.13;99781.27;78005;1301;3053891;-60
2023/02/17 02:45:58;;;;;;;9.30;4.50;;;;;;;-1.53;78.51;99780.28;79264;1301;3013486;-60
2023/02/17 02:48:25;;;;;;;14.00;5.00;;;;;;;-1.50;78.66;99776.84;79407;1299;3011701;-59
2023/02/17 02:50:58;;;;;;;8.70;4.90;;;;;;;-1.43;78.55;99775.76;78236;1295;3069084;-60
2023/02/17 02:53:31;;;;;;;11.60;5.50;;;;;;;-1.62;79.01;99774.15;79241;1300;3011265;-59
2023/02/17 02:56:09;;;;;;;7.90;4.30;;;;;;;-1.60;79.39;99767.09;78192;1299;3056782;-59
2023/02/17 02:58:51;;;;;;;9.80;4.20;;;;;;;-1.59;79.00;99767.44;78184;1301;3049570;-59
2023/02/17 03:01:29;;;;;;;9.60;4.60;;;;;;;-1.58;79.10;99766.23;78024;1300;3053810;-60
2023/02/17 03:04:01;;;;;;;8.80;4.00;;;;;;;-1.60;79.18;99765.38;78175;1308;3049328;-60
2023/02/17 03:06:30;;;;;;;;;;;;;;;-1.46;79.13;99762.89;79374;1300;3014028;-59
2023/02/17 03:09:04;;;;;;;9.00;3.90;;;;;;;-1.54;78.89;99755.90;78152;1301;3051687;-60
2023/02/17 03:11:34;;;;;;;12.30;4.20;;;;;;;-1.61;79.17;99755.08;78066;1300;3069715;-60
2023/02/17 03:14:07;;;;;;;11.00;4.60;;;;;;;-1.58;78.98;99756.27;79359;1295;3013303;-60
2023/02/17 03:16:36;;;;;;;8.50;4.60;;;;;;;-1.59;79.08;99751.80;77998;1300;3057213;-60
2023/02/17 03:19:03;;;;;;;9.50;4.50;;;;;;;-1.65;78.84;99750.81;79382;1298;3013175;-60
2023/02/17 03:21:36;;;;;;;11.30;4.50;;;;;;;-1.72;79.29;99748.97;79453;1295;3011590;-60
2023/02/17 03:24:05;;;;;;;;;;;;;;;-1.68;79.50;99745.34;78211;1298;3052538;-60
2023/02/17 03:26:32;;;;;;;12.50;4.80;;;;;;;-1.74;79.65;99744.34;79385;1301;3018659;-60
2023/02/17 03:28:58;;;;;;;11.30;4.80;;;;;;;-1.86;79.91;99742.17;79344;1301;3011959;-60
2023/02/17 03:31:27;;;;;;;12.90;4.90;;;;;;;-1.86;79.98;99741.33;78201;1298;3028375;-60
2023/02/17 03:33:53;;;;;;;13.30;5.30;;;;;;;-1.91;80.17;99739.27;79487;1296;3012916;-59
2023/02/17 03:36:20;;;;;;;6.90;3.30;;;;;;;-1.87;80.20;99739.09;79429;1298;3012902;-59
2023/02/17 03:38:50;;;;;;;12.20;4.70;;;;;;;-1.35;79.21;99735.30;78214;1298;3052184;-60
2023/02/17 03:41:17;;;;;;;9.90;3.70;;;;;;;-0.53;76.13;99733.16;79461;1299;3013789;-60
2023/02/17 03:43:43;;;;;;;9.20;3.80;;;;;;;-0.32;74.52;99725.70;79352;1301;3014072;-60
2023/02/17 03:46:13;;;;;;;12.80;4.70;;;;;;;-0.28;74.08;99725.65;78220;1296;3055821;-60
2023/02/17 03:48:40;;;;;;;12.20;4.50;;;;;;;-0.57;74.34;99721.52;79454;1295;3013958;-60
2023/02/17 03:51:15;;;;;;;11.00;5.30;;;;;;;-0.68;74.88;99722.33;79360;1296;3011658;-60
2023/02/17 03:53:43;;;;;;;11.90;5.10;;;;;;;-0.95;75.48;99717.79;78237;1300;3054322;-60
2023/02/17 03:56:11;;;;;;;9.20;4.60;;;;;;;-1.10;75.96;99712.59;79409;1298;3013319;-59
2023/02/17 03:58:37;;;;;;;8.80;4.60;;;;;;;-1.11;76.53;99711.56;79487;1295;3011853;-60
2023/02/17 04:01:07;;;;;;;10.00;4.80;;;;;;;-1.15;76.68;99710.06;78178;1298;3056264;-59
2023/02/17 04:03:34;;;;;;;6.90;3.90;;;;;;;-1.31;76.92;99711.56;79363;1295;3012880;-60
2023/02/17 04:06:05;;;;;;;8.70;4.40;;;;;;;-1.42;77.34;99702.72;79049;1295;3012925;-60
2023/02/17 04:08:31;;;;;;;11.20;4.10;;;;;;;-1.42;77.57;99704.09;79356;1301;3013915;-60
2023/02/17 04:11:00;;;;;;;10.30;3.90;;;;;;;-1.52;77.51;99697.63;79512;1299;3012005;-59
2023/02/17 04:13:28;;;;;;;8.20;4.10;;;;;;;-1.54;77.56;99696.96;78174;1295;3069656;-60
2023/02/17 04:16:00;;;;;;;9.50;3.50;;;;;;;-1.59;77.88;99691.16;79367;1296;3011586;-59
2023/02/17 04:18:27;;;;;;;7.60;3.20;;;;;;;-1.65;77.58;99686.05;76539;1300;3056725;-60
2023/02/17 04:20:54;;;;;;;9.80;4.10;;;;;;;-1.74;78.30;99686.29;79360;1298;3012966;-59
2023/02/17 04:23:21;;;;;;;11.30;4.30;;;;;;;-1.75;78.19;99680.45;79408;1294;3011770;-59
2023/02/17 04:25:49;;;;;;;12.20;4.10;;;;;;;-1.81;78.38;99679.13;78156;1301;3053399;-59
2023/02/17 04:28:16;;;;;;;10.90;4.40;;;;;;;-1.73;78.01;99674.77;79411;1298;3013312;-59
2023/02/17 04:30:45;;;;;;;7.70;3.60;;;;;;;-1.72;78.12;99674.94;82103;1295;3011627;-60
2023/02/17 04:33:13;;;;;;;10.40;3.90;;;;;;;-1.76;77.96;99672.23;80782;1295;3055756;-60
2023/02/17 04:35:39;;;;;;;12.90;4.10;;;;;;;-1.75;77.88;99670.33;82072;1295;3012728;-61
2023/02/17 04:38:06;;;;;;;9.80;4.20;;;;;;;-1.77;77.96;99671.38;82001;1295;3010810;-61
2023/02/17 04:40:37;;;;;;;12.80;4.30;;;;;;;-1.78;78.29;99668.11;80677;1300;3053726;-61
2023/02/17 04:43:04;;;;;;;13.10;4.70;;;;;;;-1.77;78.12;99667.93;81999;1295;3013071;-61
2023/02/17 04:45:31;;;;;;;12.90;4.50;;;;;;;-1.85;78.35;99666.10;81960;1295;3011220;-61
2023/02/17 04:47:59;;;;;;;12.60;4.90;;;;;;;-1.79;78.27;99662.12;80659;1297;3057559;-61
2023/02/17 04:50:26;;;;;;;8.10;4.00;;;;;;;-1.75;77.93;99660.02;81937;1295;3018270;-61
2023/02/17 04:52:52;;;;;;;9.20;4.70;;;;;;;-1.68;77.48;99653.10;81967;1295;3011451;-61
2023/02/17 04:55:21;;;;;;;14.10;4.70;;;;;;;-1.71;77.14;99655.69;80686;1295;3050986;-61
2023/02/17 04:57:48;;;;;;;10.10;5.10;;;;;;;-1.80;77.11;99653.70;81942;1295;3012601;-61
2023/02/17 05:00:14;;;;;;;10.60;4.60;;;;;;;-1.79;77.33;99648.54;81974;1297;3011302;-61
2023/02/17 05:02:42;;;;;;;10.30;4.40;;;;;;;-1.71;77.29;99646.26;80670;1297;3025790;-60
2023/02/17 05:05:09;;;;;;;9.50;4.20;;;;;;;-1.68;77.11;99649.65;81939;1295;3012654;-61
2023/02/17 05:07:36;;;;;;;12.30;4.50;;;;;;;-1.71;76.85;99650.04;81905;1295;3011208;-61
2023/02/17 05:10:04;;;;;;;9.80;5.10;;;;;;;-1.65;76.43;99650.15;80704;1296;3026777;-61
2023/02/17 05:12:30;;;;;;;8.70;4.40;;;;;;;-1.66;76.07;99649.30;81980;1295;3012290;-61
2023/02/17 05:14:57;;;;;;;6.90;3.70;;;;;;;-1.65;76.33;99654.45;81935;1295;3011375;-60
2023/02/17 05:17:25;;;;;;;8.40;4.40;;;;;;;-1.60;75.66;99652.17;80689;1295;3026889;-61
2023/02/17 05:19:52;;;;;;;7.50;3.60;;;;;;;-1.61;75.89;99651.66;81945;1298;3018143;-60
2023/02/17 05:22:19;;;;;;;7.20;4.00;;;;;;;-1.51;75.87;99649.69;81942;1298;3011377;-60
2023/02/17 05:24:46;;;;;;;9.00;4.10;;;;;;;-1.59;75.84;99644.95;80702;1297;3027536;-61
2023/02/17 05:27:13;;;;;;;7.10;3.90;;;;;;;-1.55;75.98;99644.41;81958;1295;3012727;-60
2023/02/17 05:29:40;;;;;;;10.30;4.40;;;;;;;-1.42;75.69;99644.63;81957;1296;3011396;-60
2023/02/17 05:32:08;;;;;;;10.00;4.30;;;;;;;-1.34;75.06;99643.71;80658;1295;3026493;-60
2023/02/17 05:34:35;;;;;;;8.10;3.60;;;;;;;-1.32;74.78;99635.42;82004;1295;3012308;-60
2023/02/17 05:39:17;;;;;;;8.10;3.90;;;;;;;-1.23;74.21;99635.00;79886;1299;3013025;-59
2023/02/17 05:41:43;;;;;;;7.80;3.70;;;;;;;-1.22;74.16;99634.83;79026;1303;3013120;-60
2023/02/17 05:44:10;;;;;;;7.00;3.80;;;;;;;-1.26;74.10;99631.77;79085;1302;3011576;-59
2023/02/17 05:46:38;;;;;;;6.50;3.40;;;;;;;-1.21;73.85;99627.76;77930;1301;3027501;-59
2023/02/17 05:49:05;;;;;;;6.50;3.30;;;;;;;-1.08;73.29;99629.70;79213;1297;3012890;-60
2023/02/17 05:51:32;;;;;;;10.30;3.70;;;;;;;-1.05;72.98;99631.56;77863;1299;3013140;-59
2023/02/17 05:54:00;;;;;;;7.30;3.40;;;;;;;-1.02;72.97;99631.19;78197;1299;3026068;-59
2023/02/17 05:56:26;;;;;;;7.40;3.40;;;;;;;-0.90;73.01;99632.77;79251;1295;3013093;-59
2023/02/17 05:58:53;;;;;;;8.60;3.50;;;;;;;-0.91;72.56;99626.92;79164;1299;3011585;-59
2023/02/17 06:01:21;;;;;;;6.70;3.40;;;;;;;-0.88;72.29;99627.41;78033;1299;3028029;-60
2023/02/17 06:03:48;;;;;;;5.50;3.30;;;;;;;-0.85;71.79;99631.00;79276;1300;3013726;-60
2023/02/17 06:06:15;;;;;;;9.30;3.40;;;;;;;-0.86;71.94;99628.92;79457;1295;3011506;-60
2023/02/17 06:08:42;;;;;;;7.90;3.30;;;;;;;-0.75;71.74;99632.09;78120;1295;3026339;-59
2023/02/17 06:11:11;;;;;;;6.60;3.50;;;;;;;-0.72;71.38;99619.84;79267;1295;3013191;-59
2023/02/17 06:13:37;;;;;;;6.80;2.70;;;;;;;-0.78;71.43;99623.52;79678;1298;3012772;-59
2023/02/17 06:16:06;;;;;;;5.00;2.70;;;;;;;-0.65;71.04;99622.52;78192;1298;3052214;-59
2023/02/17 06:18:32;;;;;;;8.50;2.80;;;;;;;-0.62;71.11;99618.67;79395;1298;3013221;-59
2023/02/17 06:20:59;;;;;;;8.90;3.70;;;;;;;-0.59;70.60;99619.84;79412;1300;3012868;-60
2023/02/17 06:23:31;;;;;;;6.50;2.70;;;;;;;-0.54;70.40;99626.48;78167;1298;3049727;-56
2023/02/17 06:25:58;;;;;;;8.90;3.30;;;;;;;-0.51;70.30;99624.05;79474;1295;3013174;-57
2023/02/17 06:28:24;;;;;;;8.10;3.20;;;;;;;-0.53;70.64;99623.73;80517;1297;3011420;-57
2023/02/17 06:30:53;;;;;;;7.80;3.10;;;;;;;-0.51;70.50;99622.15;78054;1298;3052920;-58
2023/02/17 06:33:19;;;;;;;11.90;3.30;;;;;;;-0.41;70.48;99624.27;79526;1295;3018208;-62
2023/02/17 06:35:50;;;;;;;8.50;3.40;;;;;;;-0.31;70.13;99621.89;79355;1298;3011754;-60
2023/02/17 06:38:18;;;;;;;9.30;4.30;;;;;;;-0.25;70.26;99620.27;78249;1298;3049117;-61
2023/02/17 06:40:45;;;;;;;9.50;3.30;;;;;;;-0.33;70.48;99616.92;79309;1301;3013144;-61
2023/02/17 06:43:12;;;;;;;9.70;3.20;;;;;;;-0.34;70.42;99617.46;79672;1298;3011283;-59
2023/02/17 06:45:40;;;;;;;7.80;3.30;;;;;;;-0.33;71.04;99616.92;78347;1297;3028634;-60
2023/02/17 06:48:07;;;;;;;9.60;3.50;;;;;;;-0.35;70.96;99614.36;79651;1295;3019120;-59
2023/02/17 06:50:33;;;;;;;9.80;3.20;;;;;;;-0.35;71.37;99615.22;79637;1294;3013573;-59
2023/02/17 06:53:01;;;;;;;9.90;3.60;;;;;;;-0.34;71.44;99614.35;78273;1295;3026443;-61
2023/02/17 06:55:30;;;;;;;5.10;2.70;;;;;;;-0.33;71.31;99611.06;79396;1298;3011701;-60
2023/02/17 06:57:57;;;;;;;4.80;2.90;;;;;;;-0.21;71.22;99610.05;79483;1298;3011680;-60
2023/02/17 07:00:25;;;;;;;7.70;3.20;;;;;;;-0.20;70.97;99612.77;78147;1295;3053469;-60
2023/02/17 07:02:52;;;;;;;6.50;3.40;;;;;;;-0.04;70.93;99611.17;79464;1294;3012923;-62
2023/02/17 07:05:19;;;;;;;7.90;3.10;;;;;;;-0.01;70.32;99608.54;79380;1295;3011788;-60
2023/02/17 07:07:47;;;;;;;9.60;3.40;;;;;;;0.07;70.04;99614.11;78463;1294;3049170;-60
2023/02/17 07:10:14;;;;;;;7.30;3.30;;;;;;;0.14;69.98;99609.17;79316;1298;3013087;-60
2023/02/17 07:12:48;;;;;;;7.90;3.40;;;;;;;0.17;69.80;99608.96;78264;1299;3053469;-61
2023/02/17 07:15:15;;;;;;;6.60;3.10;;;;;;;0.23;69.38;99608.88;79319;1299;3013701;-61
2023/02/17 07:17:41;;;;;;;7.40;4.00;;;;;;;0.20;69.58;99607.35;79309;1297;3013579;-60
2023/02/17 07:20:10;;;;;;;9.10;3.60;;;;;;;0.35;69.43;99609.36;78261;1295;3028051;-61
2023/02/17 07:22:36;;;;;;;6.90;3.40;;;;;;;0.44;68.92;99604.38;79499;1295;3013679;-60
2023/02/17 07:25:09;;;;;;;7.10;3.20;;;;;;;0.49;68.80;99603.94;78966;1298;3013468;-60
2023/02/17 07:27:36;;;;;;;6.50;3.40;;;;;;;0.56;68.69;99599.52;79332;1298;3013645;-61
2023/02/17 07:30:03;;;;;;;7.20;3.50;;;;;;;0.55;68.30;99602.64;79453;1297;3011533;-64
2023/02/17 07:32:31;;;;;;;7.00;3.50;;;;;;;0.57;68.60;99602.42;78171;1296;3067954;-60
2023/02/17 07:34:57;;;;;;;6.10;2.80;;;;;;;0.66;68.39;99602.45;79405;1295;3012969;-61
2023/02/17 07:37:24;;;;;;;7.80;3.40;;;;;;;0.78;68.28;99596.38;79338;1300;3011653;-61
2023/02/17 07:39:52;;;;;;;5.90;2.80;;;;;;;0.80;68.26;99595.13;78172;1300;3028508;-60
2023/02/17 07:42:20;;;;;;;6.50;3.00;;;;;;;0.80;68.07;99598.91;79383;1295;3011632;-61
2023/02/17 07:44:46;;;;;;;9.80;3.90;;;;;;;0.86;67.81;99591.76;79640;1294;3011733;-60
2023/02/17 07:47:14;;;;;;;6.80;3.00;;;;;;;0.82;67.67;99591.29;78297;1295;3069528;-60
2023/02/17 07:49:41;;;;;;;7.60;3.50;;;;;;;0.85;67.91;99588.48;79485;1295;3020468;-60
2023/02/17 07:52:08;;;;;;;9.30;3.90;;;;;;;0.79;67.96;99587.91;79569;1293;3011308;-60
2023/02/17 07:54:36;;;;;;;7.30;3.30;;;;;;;0.88;68.29;99581.88;78324;1295;3027381;-60
2023/02/17 07:57:03;;;;;;;8.00;3.80;;;;;;;0.81;68.04;99577.68;79369;1294;3018991;-60
2023/02/17 07:59:31;;;;;;;7.80;3.70;;;;;;;0.79;68.27;99577.54;79324;1300;3011850;-61
2023/02/17 08:01:59;;;;;;;9.20;3.80;;;;;;;0.90;68.50;99575.46;78219;1294;3070536;-63
2023/02/17 08:04:25;;;;;;;7.30;3.30;;;;;;;0.97;68.11;99573.94;79356;1295;3013030;-61
2023/02/17 08:06:52;;;;;;;6.80;3.00;;;;;;;1.10;67.80;99571.95;79479;1299;3013017;-60
2023/02/17 08:15:06;;;;;;;6.10;2.70;;;;;;;1.18;67.15;99574.38;78202;1299;3052645;-60
2023/02/17 08:17:32;;;;;;;9.30;3.80;;;;;;;1.04;67.68;99575.00;79574;1297;3011545;-60
2023/02/17 08:20:00;;;;;;;8.40;3.20;;;;;;;1.04;68.10;99569.83;79349;1298;3011796;-60
2023/02/17 08:22:27;;;;;;;6.70;2.60;;;;;;;1.11;68.30;99570.73;78236;1294;3056038;-60
2023/02/17 08:24:54;;;;;;;5.80;2.90;;;;;;;1.00;67.98;99569.39;79355;1295;3012773;-60
2023/02/17 08:27:21;;;;;;;6.10;2.80;;;;;;;1.00;67.72;99564.38;79351;1295;3011791;-60
2023/02/17 08:29:49;;;;;;;6.40;2.50;;;;;;;1.14;67.76;99569.96;78102;1299;3027330;-60
2023/02/17 08:32:16;;;;;;;5.20;2.50;;;;;;;1.20;67.84;99567.77;79374;1293;3013132;-60
2023/02/17 08:34:43;;;;;;;6.20;3.10;;;;;;;1.19;67.95;99569.52;79373;1294;3013250;-60
2023/02/17 08:37:11;;;;;;;6.90;2.40;;;;;;;1.11;67.81;99569.69;78095;1294;3056808;-60
2023/02/17 08:39:38;;;;;;;7.60;2.50;;;;;;;1.17;67.95;99571.99;79313;1294;3013759;-61
2023/02/17 08:42:05;;;;;;;7.10;2.70;;;;;;;1.21;68.29;99569.48;79455;1294;3013327;-60
2023/02/17 08:44:34;;;;;;;4.80;2.60;;;;;;;1.26;67.55;99570.60;78207;1294;3028399;-61
2023/02/17 08:47:03;;;;;;;5.30;2.20;;;;;;;1.32;67.70;99571.48;79485;1298;3011917;-60
2023/02/17 08:49:34;;;;;;;4.80;2.50;;;;;;;1.34;67.95;99573.01;78263;1300;3068102;-61
2023/02/17 08:52:01;;;;;;;4.00;2.20;;;;;;;1.35;67.64;99570.92;79589;1293;3019142;-60
2023/02/17 08:54:29;;;;;;;5.00;2.20;;;;;;;1.34;67.44;99567.67;79365;1295;3013285;-60
2023/02/17 08:56:57;;;;;;;6.30;2.40;;;;;;;1.40;67.48;99572.38;78317;1299;3055002;-60
2023/02/17 08:59:24;;;;;;;4.70;2.00;;;;;;;1.52;67.44;99570.05;79388;1301;3013146;-61
2023/02/17 09:01:50;;;;;;;4.00;2.00;;;;;;;1.52;67.08;99574.89;79494;1295;3013139;-61
2023/02/17 09:04:19;;;;;;;6.60;2.30;;;;;;;1.50;66.83;99570.77;78061;1298;3025626;-60
2023/02/17 09:06:55;;;;;;;3.90;2.00;;;;;;;1.45;67.10;99567.09;79907;1289;3013259;-60
2023/02/17 09:09:25;;;;;;;5.10;2.20;;;;;;;1.39;67.18;99563.59;78628;1288;3050045;-60
2023/02/17 09:11:59;;;;;;;5.10;2.30;;;;;;;1.40;67.41;99568.74;78569;1290;3053480;-61
2023/02/17 09:14:26;;;;;;;3.70;2.30;;;;;;;1.49;67.25;99570.45;79872;1291;3013472;-60
2023/02/17 09:16:55;;;;;;;5.30;2.30;;;;;;;1.43;67.68;99565.57;80019;1292;3013486;-60
2023/02/17 09:19:23;;;;;;;5.50;2.30;;;;;;;1.46;67.71;99566.19;78541;1291;3069703;-60
2023/02/17 09:21:50;;;;;;;5.40;2.10;;;;;;;1.44;67.71;99567.45;79855;1292;3013927;-60
2023/02/17 09:24:16;;;;;;;4.10;2.60;;;;;;;1.47;67.73;99567.90;80006;1289;3011818;-60
2023/02/17 09:26:45;;;;;;;6.60;2.20;;;;;;;1.47;67.91;99560.47;78542;1290;3026076;-60
2023/02/17 09:29:11;;;;;;;5.00;2.10;;;;;;;1.51;67.80;99557.11;80024;1291;3020856;-60
2023/02/17 09:31:38;;;;;;;4.60;2.30;;;;;;;1.46;67.87;99557.39;79740;1291;3011828;-61
2023/02/17 09:34:06;;;;;;;4.70;2.40;;;;;;;1.55;67.83;99555.14;78569;1293;3026223;-60
2023/02/17 09:36:37;;;;;;;4.30;2.10;;;;;;;1.53;68.01;99556.03;79824;1291;3018714;-60
2023/02/17 09:39:05;;;;;;;4.30;2.10;;;;;;;1.49;68.07;99556.80;78573;1291;3049217;-60
2023/02/17 09:41:36;;;;;;;4.90;2.40;;;;;;;1.53;67.80;99545.33;80026;1293;3013784;-60
2023/02/17 09:44:09;;;;;;;4.70;2.40;;;;;;;1.49;67.67;99547.48;78645;1293;3052585;-61
2023/02/17 09:46:44;;;;;;;6.00;2.20;;;;;;;1.55;68.05;99541.84;78436;1289;3051423;-61
2023/02/17 09:49:23;;;;;;;7.90;2.50;;;;;;;1.58;68.18;99541.42;79762;1291;3011641;-60
2023/02/17 09:52:11;;;;;;;5.60;2.40;;;;;;;1.48;67.96;99537.85;78650;1289;3051672;-60
2023/02/17 09:55:02;;;;;;;3.70;1.80;;;;;;;1.55;67.98;99534.77;78627;1292;3057429;-61
2023/02/17 09:57:39;;;;;;;5.50;2.70;;;;;;;1.54;68.27;99532.01;78646;1294;3050380;-60
2023/02/17 10:00:20;;;;;;;4.20;2.10;;;;;;;1.52;68.10;99527.58;78524;1290;3053327;-60
2023/02/17 10:03:00;;;;;;;6.80;2.20;;;;;;;1.67;68.18;99532.05;78343;1295;3051272;-61
2023/02/17 10:05:32;;;;;;;5.10;2.20;;;;;;;1.77;67.87;99530.80;78567;1292;3052786;-62
2023/02/17 10:08:25;;;;;;;6.80;2.50;;;;;;;1.76;68.18;99524.61;78333;1294;3052155;-60
2023/02/17 10:11:00;;;;;;;5.40;2.40;;;;;;;1.79;67.97;99524.52;78467;1290;3069608;-60
2023/02/17 10:13:31;;;;;;;6.80;2.00;;;;;;;1.82;67.75;99522.23;81166;1289;3051463;-61
2023/02/17 10:15:59;;;;;;;3.50;1.90;;;;;;;1.76;67.76;99522.19;82279;1289;3012926;-61
2023/02/17 10:19:04;;;;;;;5.60;2.60;;;;;;;1.77;68.22;99521.13;82292;1288;3011125;-61
2023/02/17 10:21:36;;;;;;;6.20;2.30;;;;;;;1.78;68.46;99523.52;80754;1288;3050753;-61
2023/02/17 10:24:02;;;;;;;8.50;2.20;;;;;;;1.81;68.14;99522.07;82331;1289;3011181;-61
2023/02/17 10:26:50;;;;;;;6.80;2.40;;;;;;;1.88;68.30;99518.97;81025;1289;3026281;-61
2023/02/17 10:29:36;;;;;;;7.20;2.80;;;;;;;1.88;67.72;99515.86;81029;1288;3067387;-61
2023/02/17 10:32:16;;;;;;;9.50;2.50;;;;;;;1.89;67.89;99513.08;81138;1288;3051482;-61
2023/02/17 10:35:03;;;;;;;6.20;3.20;;;;;;;1.88;67.62;99511.02;81112;1288;3056151;-61
2023/02/17 10:37:43;;;;;;;9.70;3.70;;;;;;;1.87;67.78;99510.20;81255;1289;3049081;-61
2023/02/17 10:40:26;;;;;;;7.10;2.90;;;;;;;1.85;67.81;99508.83;81117;1288;3052748;-61
2023/02/17 10:43:00;;;;;;;5.80;2.90;;;;;;;1.83;67.94;99509.59;81054;1289;3050528;-61
2023/02/17 10:45:33;;;;;;;8.60;2.60;;;;;;;1.78;68.02;99502.27;82367;1290;3011430;-61
2023/02/17 10:48:05;;;;;;;7.20;2.80;;;;;;;1.69;68.12;99501.11;81038;1290;3051961;-61
2023/02/17 10:50:32;;;;;;;7.10;2.10;;;;;;;1.72;68.50;99499.29;82384;1291;3011465;-61
2023/02/17 10:53:00;;;;;;;4.70;2.30;;;;;;;1.81;67.72;99498.06;80991;1289;3049365;-61
2023/02/17 10:55:36;;;;;;;4.80;2.30;;;;;;;1.82;68.06;99502.34;82534;1287;3012694;-61
2023/02/17 10:58:39;;;;;;;8.80;3.10;;;;;;;1.82;68.36;99502.53;81091;1288;3053792;-61
2023/02/17 11:01:07;;;;;;;11.00;2.90;;;;;;;1.88;68.16;99500.31;80965;1288;3049340;-61
2023/02/17 11:03:37;;;;;;;7.30;2.40;;;;;;;1.86;68.16;99496.91;82400;1288;3012510;-61
2023/02/17 11:06:25;;;;;;;6.50;2.20;;;;;;;1.66;68.90;99494.09;81117;1291;3068996;-63
2023/02/17 11:09:00;;;;;;;5.30;2.60;;;;;;;1.61;69.07;99495.61;81085;1288;3050931;-61
2023/02/17 11:11:34;;;;;;;6.30;2.50;;;;;;;1.66;69.33;99489.59;81123;1288;3056529;-61
2023/02/17 11:14:05;;;;;;;6.60;2.30;;;;;;;1.68;69.42;99480.94;82277;1287;3011370;-61
2023/02/17 11:16:36;;;;;;;6.60;2.40;;;;;;;1.72;69.37;99479.80;81270;1289;3053036;-61
2023/02/17 11:19:04;;;;;;;6.20;2.10;;;;;;;1.76;69.60;99484.52;82481;1289;3010956;-61
2023/02/17 11:21:33;;;;;;;5.20;2.30;;;;;;;1.79;69.19;99478.09;81139;1289;3051428;-61
2023/02/17 11:24:05;;;;;;;10.50;2.70;;;;;;;1.73;69.28;99476.67;82410;1288;3011402;-61
2023/02/17 11:26:34;;;;;;;9.10;2.80;;;;;;;1.65;69.82;99473.05;81217;1290;3068306;-61
2023/02/17 11:29:08;;;;;;;7.00;2.00;;;;;;;1.63;70.22;99473.45;82295;1289;3011291;-61
2023/02/17 11:31:37;;;;;;;9.10;2.70;;;;;;;1.77;70.02;99475.02;81264;1289;3057103;-61
2023/02/17 11:34:14;;;;;;;7.00;2.60;;;;;;;1.77;70.07;99469.64;82380;1289;3018876;-61
2023/02/17 11:36:44;;;;;;;5.80;2.80;;;;;;;1.76;70.17;99469.86;81255;1289;3049514;-61
2023/02/17 11:39:19;;;;;;;7.10;2.60;;;;;;;1.78;70.18;99471.55;82495;1289;3011369;-61
2023/02/17 11:41:47;;;;;;;6.30;2.90;;;;;;;1.86;70.14;99467.89;81114;1289;3069446;-61